createdAt,value
2018-04-07T00:02:13.314Z,50.51
2018-04-07T00:04:39.174Z,50.64
2018-04-07T00:07:05.037Z,50.48
2018-04-07T00:09:30.877Z,51.23
2018-04-07T00:11:56.727Z,50.38
2018-04-07T00:14:22.563Z,50.86
2018-04-07T00:16:48.413Z,52.02
2018-04-07T00:19:14.269Z,50.88
2018-04-07T00:21:40.127Z,51.08
2018-04-07T00:24:05.969Z,51.22
2018-04-07T00:26:31.808Z,51.21
2018-04-07T00:28:57.664Z,50.81
2018-04-07T00:31:23.530Z,51.39
2018-04-07T00:33:49.397Z,51.33
2018-04-07T00:36:15.251Z,51.34
2018-04-07T00:38:41.115Z,51.40
2018-04-07T00:41:06.969Z,52.00
2018-04-07T00:43:32.838Z,50.90
2018-04-07T00:45:58.688Z,51.72
2018-04-07T00:48:24.548Z,52.08
2018-04-07T00:50:50.411Z,52.49
2018-04-07T00:53:16.285Z,51.66
2018-04-07T00:55:42.164Z,51.80
2018-04-07T00:58:08.040Z,51.67
2018-04-07T01:00:33.915Z,51.86
2018-04-07T01:02:59.746Z,52.30
2018-04-07T01:05:25.634Z,52.30
2018-04-07T01:07:51.488Z,52.13
2018-04-07T01:10:17.344Z,52.48
2018-04-07T01:12:43.228Z,52.33
2018-04-07T01:15:09.071Z,53.33
2018-04-07T01:17:35.004Z,52.48
2018-04-07T01:20:00.838Z,52.26
2018-04-07T01:22:26.684Z,52.57
2018-04-07T01:24:52.529Z,52.34
2018-04-07T01:27:18.381Z,52.46
2018-04-07T01:29:44.229Z,52.71
2018-04-07T01:32:10.116Z,51.55
2018-04-07T01:34:35.962Z,51.90
2018-04-07T01:37:01.828Z,51.93
2018-04-07T01:39:27.699Z,51.65
2018-04-07T01:41:53.559Z,51.57
2018-04-07T01:44:19.425Z,52.33
2018-04-07T01:46:45.256Z,52.09
2018-04-07T01:49:11.100Z,52.77
2018-04-07T01:51:36.939Z,53.53
2018-04-07T01:54:02.799Z,52.15
2018-04-07T01:56:28.649Z,52.61
2018-04-07T01:58:54.541Z,52.60
2018-04-07T02:01:20.395Z,53.30
2018-04-07T02:03:46.221Z,53.22
2018-04-07T02:06:12.094Z,53.36
2018-04-07T02:08:37.934Z,53.43
2018-04-07T02:11:03.790Z,52.88
2018-04-07T02:13:29.632Z,52.82
2018-04-07T02:15:55.484Z,52.62
2018-04-07T02:18:21.307Z,53.28
2018-04-07T02:20:47.144Z,53.30
2018-04-07T02:23:12.990Z,52.33
2018-04-07T02:25:38.844Z,53.33
2018-04-07T02:28:04.709Z,52.76
2018-04-07T02:30:30.574Z,53.04
2018-04-07T02:32:56.449Z,53.64
2018-04-07T02:35:22.300Z,53.54
2018-04-07T02:37:48.155Z,53.17
2018-04-07T02:40:14.024Z,53.74
2018-04-07T02:42:39.947Z,54.02
2018-04-07T02:45:05.783Z,54.06
2018-04-07T02:47:31.629Z,54.27
2018-04-07T02:49:57.507Z,54.63
2018-04-07T02:52:23.349Z,53.81
2018-04-07T02:54:49.183Z,54.13
2018-04-07T02:57:15.051Z,54.30
2018-04-07T02:59:40.970Z,54.10
2018-04-07T03:02:06.841Z,54.58
2018-04-07T03:04:32.698Z,54.68
2018-04-07T03:06:58.563Z,54.42
2018-04-07T03:09:24.428Z,54.45
2018-04-07T03:11:50.293Z,54.13
2018-04-07T03:14:16.135Z,54.24
2018-04-07T03:16:41.989Z,54.16
2018-04-07T03:19:07.842Z,54.90
2018-04-07T03:21:33.710Z,54.36
2018-04-07T03:23:59.548Z,54.25
2018-04-07T03:26:25.415Z,53.85
2018-04-07T03:28:51.287Z,54.38
2018-04-07T03:31:17.127Z,53.91
2018-04-07T03:33:42.992Z,54.14
2018-04-07T03:36:08.848Z,54.17
2018-04-07T03:38:34.682Z,53.83
2018-04-07T03:41:00.514Z,53.67
2018-04-07T03:43:26.363Z,53.57
2018-04-07T03:45:52.232Z,53.35
2018-04-07T03:48:18.125Z,53.17
2018-04-07T03:50:43.964Z,53.08
2018-04-07T03:53:09.792Z,53.55
2018-04-07T03:55:35.644Z,53.63
2018-04-07T03:58:01.512Z,53.76
2018-04-07T04:00:27.374Z,54.13
2018-04-07T04:02:53.201Z,53.93
2018-04-07T04:05:19.101Z,54.60
2018-04-07T04:07:44.941Z,54.88
2018-04-07T04:10:10.860Z,54.58
2018-04-07T04:12:36.704Z,55.45
2018-04-07T04:15:03.133Z,55.25
2018-04-07T04:17:29.021Z,55.70
2018-04-07T04:19:54.860Z,56.18
2018-04-07T04:22:20.723Z,57.19
2018-04-07T04:24:46.566Z,57.33
2018-04-07T04:27:12.435Z,57.46
2018-04-07T04:29:38.284Z,57.58
2018-04-07T04:32:04.149Z,58.20
2018-04-07T04:34:29.997Z,57.87
2018-04-07T04:36:55.897Z,58.51
2018-04-07T04:39:21.762Z,58.85
2018-04-07T04:41:47.633Z,58.87
2018-04-07T04:44:13.483Z,58.82
2018-04-07T04:46:39.386Z,59.07
2018-04-07T04:49:05.233Z,58.97
2018-04-07T04:51:31.090Z,59.00
2018-04-07T04:53:56.957Z,58.94
2018-04-07T04:56:22.799Z,59.65
2018-04-07T04:58:48.632Z,59.60
2018-04-07T05:01:14.494Z,59.27
2018-04-07T05:03:40.336Z,60.04
2018-04-07T05:06:06.237Z,59.80
2018-04-07T05:08:32.088Z,59.42
2018-04-07T05:10:57.937Z,59.55
2018-04-07T05:13:23.797Z,60.44
2018-04-07T05:15:49.676Z,59.91
2018-04-07T05:18:15.526Z,60.44
2018-04-07T05:20:41.373Z,60.53
2018-04-07T05:23:07.269Z,59.83
2018-04-07T05:25:33.105Z,60.92
2018-04-07T05:27:58.998Z,60.34
2018-04-07T05:30:24.846Z,60.42
2018-04-07T05:32:50.798Z,59.59
2018-04-07T05:35:16.691Z,59.88
2018-04-07T05:37:42.533Z,60.49
2018-04-07T05:40:08.395Z,60.20
2018-04-07T05:42:34.249Z,60.17
2018-04-07T05:45:00.138Z,60.50
2018-04-07T05:47:26.050Z,60.80
2018-04-07T05:49:51.964Z,60.08
2018-04-07T05:52:17.841Z,59.01
2018-04-07T05:54:43.754Z,59.40
2018-04-07T05:57:09.584Z,60.34
2018-04-07T05:59:35.480Z,59.26
2018-04-07T06:02:01.338Z,59.63
2018-04-07T06:04:28.440Z,59.55
2018-04-07T06:06:54.357Z,58.07
2018-04-07T06:09:20.249Z,58.72
2018-04-07T06:11:46.224Z,58.27
2018-04-07T06:14:12.042Z,58.12
2018-04-07T06:16:38.020Z,58.51
2018-04-07T06:19:03.932Z,56.78
2018-04-07T06:21:29.820Z,57.81
2018-04-07T06:23:55.676Z,56.21
2018-04-07T06:26:21.534Z,56.08
2018-04-07T06:28:47.453Z,55.12
2018-04-07T06:31:13.330Z,54.65
2018-04-07T06:33:39.250Z,54.82
2018-04-07T06:36:05.129Z,53.86
2018-04-07T06:38:31.061Z,55.00
2018-04-07T06:40:57.090Z,54.77
2018-04-07T06:43:23.009Z,54.58
2018-04-07T06:45:48.930Z,54.53
2018-04-07T06:48:14.837Z,54.30
2018-04-07T06:50:40.733Z,53.26
2018-04-07T06:53:06.610Z,53.92
2018-04-07T06:55:32.517Z,53.87
2018-04-07T06:57:58.360Z,52.48
2018-04-07T07:00:24.249Z,53.21
2018-04-07T07:02:50.153Z,52.20
2018-04-07T07:05:16.073Z,52.36
2018-04-07T07:07:41.970Z,51.34
2018-04-07T07:10:07.819Z,52.59
2018-04-07T07:12:33.709Z,52.57
2018-04-07T07:14:59.560Z,53.54
2018-04-07T07:17:25.455Z,52.37
2018-04-07T07:19:51.309Z,53.26
2018-04-07T07:22:17.190Z,52.68
2018-04-07T07:24:43.088Z,52.54
2018-04-07T07:27:08.982Z,53.02
2018-04-07T07:29:34.828Z,52.38
2018-04-07T07:32:00.740Z,53.51
2018-04-07T07:34:26.621Z,52.18
2018-04-07T07:36:52.456Z,52.13
2018-04-07T07:39:18.311Z,50.44
2018-04-07T07:41:44.201Z,50.23
2018-04-07T07:44:25.076Z,51.37
2018-04-07T07:46:50.951Z,50.40
2018-04-07T07:49:16.831Z,51.34
2018-04-07T07:51:42.725Z,53.06
2018-04-07T07:54:08.601Z,51.28
2018-04-07T07:56:34.497Z,50.48
2018-04-07T07:59:00.353Z,52.02
2018-04-07T08:01:26.199Z,51.54
2018-04-07T08:03:52.853Z,50.25
2018-04-07T08:06:18.784Z,50.11
2018-04-07T08:08:44.650Z,50.00
2018-04-07T08:11:10.515Z,49.69
2018-04-07T08:13:36.405Z,49.88
2018-04-07T08:16:02.264Z,50.22
2018-04-07T08:18:28.127Z,50.00
2018-04-07T08:20:53.971Z,50.12
2018-04-07T08:23:19.847Z,50.96
2018-04-07T08:25:45.704Z,50.74
2018-04-07T08:28:11.578Z,49.91
2018-04-07T08:30:37.481Z,49.78
2018-04-07T08:33:03.381Z,50.72
2018-04-07T08:35:29.241Z,50.64
2018-04-07T08:37:55.127Z,50.66
2018-04-07T08:40:21.771Z,49.95
2018-04-07T08:42:47.618Z,50.45
2018-04-07T08:45:13.520Z,50.15
2018-04-07T08:47:39.376Z,49.28
2018-04-07T08:50:05.247Z,50.53
2018-04-07T08:52:31.111Z,51.66
2018-04-07T08:54:56.961Z,50.63
2018-04-07T08:57:22.842Z,49.92
2018-04-07T08:59:48.722Z,50.31
2018-04-07T09:02:14.613Z,50.30
2018-04-07T09:04:40.450Z,50.59
2018-04-07T09:07:06.329Z,49.96
2018-04-07T09:09:32.189Z,51.25
2018-04-07T09:11:58.076Z,50.36
2018-04-07T09:14:23.906Z,50.41
2018-04-07T09:16:49.763Z,49.78
2018-04-07T09:19:15.686Z,49.70
2018-04-07T09:21:41.548Z,49.66
2018-04-07T09:24:07.440Z,48.66
2018-04-07T09:26:33.318Z,49.20
2018-04-07T09:28:59.198Z,49.13
2018-04-07T09:31:25.081Z,49.23
2018-04-07T09:33:50.984Z,48.96
2018-04-07T09:36:16.869Z,50.10
2018-04-07T09:38:42.750Z,49.55
2018-04-07T09:41:08.650Z,49.99
2018-04-07T09:43:34.521Z,50.29
2018-04-07T09:46:00.410Z,50.73
2018-04-07T09:48:26.286Z,49.67
2018-04-07T09:50:52.200Z,48.72
2018-04-07T09:53:18.060Z,48.18
2018-04-07T09:55:43.944Z,48.95
2018-04-07T09:58:09.816Z,47.47
2018-04-07T10:00:35.758Z,48.43
2018-04-07T10:03:01.612Z,48.92
2018-04-07T10:05:27.490Z,47.36
2018-04-07T10:07:53.335Z,48.52
2018-04-07T10:10:19.184Z,47.97
2018-04-07T10:12:45.083Z,48.77
2018-04-07T10:15:10.949Z,48.93
2018-04-07T10:17:36.861Z,48.95
2018-04-07T10:20:02.729Z,48.23
2018-04-07T10:22:28.607Z,47.96
2018-04-07T10:24:54.502Z,47.80
2018-04-07T10:27:20.376Z,47.12
2018-04-07T10:29:46.260Z,47.25
2018-04-07T10:32:12.134Z,48.40
2018-04-07T10:34:38.001Z,47.44
2018-04-07T10:37:03.859Z,47.29
2018-04-07T10:39:29.772Z,47.76
2018-04-07T10:41:55.617Z,48.00
2018-04-07T10:44:21.498Z,47.85
2018-04-07T10:46:47.389Z,46.32
2018-04-07T10:49:13.285Z,45.52
2018-04-07T10:51:39.150Z,43.96
2018-04-07T10:54:05.053Z,44.32
2018-04-07T10:56:30.933Z,45.07
2018-04-07T10:58:56.804Z,45.13
2018-04-07T11:01:22.675Z,43.70
2018-04-07T11:03:48.559Z,44.76
2018-04-07T11:06:14.456Z,45.10
2018-04-07T11:08:40.347Z,44.38
2018-04-07T11:11:06.231Z,41.84
2018-04-07T11:13:32.115Z,43.39
2018-04-07T11:15:57.969Z,42.67
2018-04-07T11:18:23.839Z,40.72
2018-04-07T11:20:49.704Z,39.36
2018-04-07T11:23:15.568Z,38.19
2018-04-07T11:25:41.464Z,38.93
2018-04-07T11:28:07.344Z,38.64
2018-04-07T11:30:33.253Z,37.10
2018-04-07T11:32:59.105Z,37.36
2018-04-07T11:35:24.972Z,36.27
2018-04-07T11:37:50.822Z,36.77
2018-04-07T11:40:16.689Z,35.20
2018-04-07T11:42:42.562Z,36.05
2018-04-07T11:45:08.426Z,36.18
2018-04-07T11:47:34.324Z,35.37
2018-04-07T11:50:00.217Z,34.62
2018-04-07T11:52:26.136Z,34.34
2018-04-07T11:54:51.988Z,33.28
2018-04-07T11:57:17.836Z,33.02
2018-04-07T11:59:43.720Z,34.38
2018-04-07T12:02:09.624Z,31.81
2018-04-07T12:04:35.492Z,31.63
2018-04-07T12:07:01.348Z,31.58
2018-04-07T12:09:27.221Z,30.89
2018-04-07T12:11:53.711Z,30.62
2018-04-07T12:14:19.559Z,30.93
2018-04-07T12:16:45.439Z,31.59
2018-04-07T12:19:11.295Z,31.41
2018-04-07T12:21:37.146Z,30.66
2018-04-07T12:24:03.047Z,30.21
2018-04-07T12:26:28.929Z,30.59
2018-04-07T12:28:54.773Z,32.06
2018-04-07T12:31:20.629Z,29.93
2018-04-07T12:33:46.502Z,30.13
2018-04-07T12:36:12.376Z,30.38
2018-04-07T12:38:38.248Z,30.58
2018-04-07T12:41:04.115Z,29.85
2018-04-07T12:43:30.025Z,30.64
2018-04-07T12:45:55.882Z,29.91
2018-04-07T12:48:21.834Z,30.73
2018-04-07T12:50:47.715Z,28.79
2018-04-07T12:53:13.601Z,28.76
2018-04-07T12:55:39.455Z,28.60
2018-04-07T12:58:05.324Z,28.62
2018-04-07T13:00:31.224Z,29.36
2018-04-07T13:02:57.096Z,29.39
2018-04-07T13:05:22.964Z,29.92
2018-04-07T13:07:48.829Z,28.66
2018-04-07T13:10:14.695Z,29.25
2018-04-07T13:12:40.578Z,28.76
2018-04-07T13:15:06.427Z,27.89
2018-04-07T13:17:32.354Z,28.94
2018-04-07T13:19:58.231Z,28.94
2018-04-07T13:22:24.124Z,27.30
2018-04-07T13:24:49.989Z,28.86
2018-04-07T13:27:15.960Z,28.63
2018-04-07T13:29:42.056Z,27.24
2018-04-07T13:32:07.922Z,26.65
2018-04-07T13:34:33.831Z,28.67
2018-04-07T13:36:59.719Z,28.89
2018-04-07T13:39:25.601Z,27.53
2018-04-07T13:41:51.449Z,26.77
2018-04-07T13:44:17.312Z,27.96
2018-04-07T13:46:43.203Z,29.19
2018-04-07T13:49:09.099Z,28.88
2018-04-07T13:51:34.985Z,28.33
2018-04-07T13:54:00.869Z,28.72
2018-04-07T13:56:26.732Z,28.59
2018-04-07T13:58:52.659Z,27.92
2018-04-07T14:01:18.571Z,27.99
2018-04-07T14:03:44.436Z,28.54
2018-04-07T14:06:10.318Z,28.98
2018-04-07T14:08:36.208Z,28.97
2018-04-07T14:11:02.084Z,28.90
2018-04-07T14:13:27.989Z,28.28
2018-04-07T14:15:53.840Z,27.98
2018-04-07T14:18:19.742Z,28.91
2018-04-07T14:20:45.642Z,28.06
2018-04-07T14:23:11.509Z,28.85
2018-04-07T14:25:37.415Z,28.65
2018-04-07T14:28:03.284Z,28.45
2018-04-07T14:30:29.163Z,28.43
2018-04-07T14:32:55.020Z,28.64
2018-04-07T14:35:20.904Z,27.99
2018-04-07T14:37:46.765Z,28.74
2018-04-07T14:40:12.621Z,28.34
2018-04-07T14:42:38.506Z,27.29
2018-04-07T14:45:04.561Z,28.30
2018-04-07T14:47:30.443Z,27.35
2018-04-07T14:49:56.293Z,27.03
2018-04-07T14:52:22.161Z,27.51
2018-04-07T14:54:48.023Z,27.76
2018-04-07T14:57:13.908Z,27.47
2018-04-07T14:59:39.766Z,27.72
2018-04-07T15:02:05.710Z,27.02
2018-04-07T15:04:31.650Z,28.28
2018-04-07T15:06:57.548Z,28.28
2018-04-07T15:09:23.431Z,28.10
2018-04-07T15:11:49.292Z,28.50
2018-04-07T15:14:15.170Z,28.08
2018-04-07T15:16:41.060Z,27.56
2018-04-07T15:19:06.946Z,28.14
2018-04-07T15:21:32.781Z,27.36
2018-04-07T15:23:58.642Z,27.51
2018-04-07T15:26:24.511Z,28.01
2018-04-07T15:28:51.544Z,28.24
2018-04-07T15:31:17.420Z,28.51
2018-04-07T15:33:43.276Z,28.45
2018-04-07T15:36:09.138Z,28.29
2018-04-07T15:38:35.015Z,28.78
2018-04-07T15:41:00.906Z,27.66
2018-04-07T15:43:26.762Z,27.82
2018-04-07T15:45:52.649Z,28.35
2018-04-07T15:48:18.533Z,29.23
2018-04-07T15:50:44.373Z,29.21
2018-04-07T15:53:10.237Z,28.31
2018-04-07T15:55:36.091Z,28.86
2018-04-07T15:58:01.945Z,28.55
2018-04-07T16:00:28.021Z,28.16
2018-04-07T16:02:53.923Z,30.23
2018-04-07T16:05:20.408Z,29.02
2018-04-07T16:07:46.271Z,28.95
2018-04-07T16:10:12.162Z,29.32
2018-04-07T16:12:38.077Z,29.80
2018-04-07T16:15:03.909Z,29.21
2018-04-07T16:17:30.459Z,29.56
2018-04-07T16:19:56.333Z,29.32
2018-04-07T16:22:22.216Z,29.32
2018-04-07T16:24:48.063Z,29.82
2018-04-07T16:27:13.915Z,29.95
2018-04-07T16:29:39.779Z,29.70
2018-04-07T16:32:05.674Z,28.79
2018-04-07T16:34:31.532Z,27.73
2018-04-07T16:36:57.407Z,27.30
2018-04-07T16:39:23.303Z,26.38
2018-04-07T16:41:49.213Z,26.64
2018-04-07T16:44:15.757Z,26.74
2018-04-07T16:46:41.644Z,26.40
2018-04-07T16:49:07.567Z,26.45
2018-04-07T16:51:33.456Z,26.89
2018-04-07T16:53:59.308Z,27.25
2018-04-07T16:56:25.181Z,29.32
2018-04-07T16:58:51.022Z,29.66
2018-04-07T17:01:16.926Z,30.36
2018-04-07T17:03:42.772Z,29.43
2018-04-07T17:06:08.689Z,30.38
2018-04-07T17:08:34.641Z,31.82
2018-04-07T17:11:00.516Z,32.13
2018-04-07T17:13:26.407Z,32.69
2018-04-07T17:15:52.268Z,32.04
2018-04-07T17:18:18.191Z,32.20
2018-04-07T17:20:44.110Z,33.15
2018-04-07T17:23:09.968Z,34.44
2018-04-07T17:25:35.837Z,34.56
2018-04-07T17:28:01.693Z,34.25
2018-04-07T17:30:27.584Z,35.12
2018-04-07T17:32:53.611Z,35.13
2018-04-07T17:35:19.489Z,35.70
2018-04-07T17:37:45.919Z,35.62
2018-04-07T17:40:11.811Z,36.51
2018-04-07T17:42:37.711Z,36.44
2018-04-07T17:45:03.572Z,36.83
2018-04-07T17:47:29.464Z,36.62
2018-04-07T17:49:55.344Z,36.67
2018-04-07T17:52:21.233Z,36.62
2018-04-07T17:54:47.134Z,37.54
2018-04-07T17:57:13.013Z,37.27
2018-04-07T17:59:38.924Z,37.70
2018-04-07T18:02:04.807Z,37.75
2018-04-07T18:04:30.648Z,38.27
2018-04-07T18:06:56.505Z,38.79
2018-04-07T18:09:22.394Z,39.16
2018-04-07T18:11:48.316Z,39.73
2018-04-07T18:14:14.182Z,39.58
2018-04-07T18:16:40.075Z,38.86
2018-04-07T18:19:06.006Z,39.50
2018-04-07T18:21:31.876Z,39.39
2018-04-07T18:23:57.751Z,39.79
2018-04-07T18:26:23.661Z,39.51
2018-04-07T18:28:49.512Z,39.42
2018-04-07T18:31:15.430Z,40.10
2018-04-07T18:33:41.341Z,39.95
2018-04-07T18:36:07.281Z,40.37
2018-04-07T18:38:33.209Z,40.14
2018-04-07T18:40:59.115Z,40.71
2018-04-07T18:43:24.990Z,41.00
2018-04-07T18:45:50.900Z,40.55
2018-04-07T18:48:16.814Z,40.82
2018-04-07T18:50:42.708Z,41.10
2018-04-07T18:53:08.613Z,41.58
2018-04-07T18:55:34.516Z,41.73
2018-04-07T18:58:00.383Z,42.14
2018-04-07T19:00:26.258Z,41.56
2018-04-07T19:02:52.218Z,42.90
2018-04-07T19:05:18.111Z,42.54
2018-04-07T19:07:44.062Z,42.62
2018-04-07T19:10:09.989Z,43.26
2018-04-07T19:12:35.867Z,44.07
2018-04-07T19:15:02.288Z,44.62
2018-04-07T19:17:29.136Z,44.27
2018-04-07T19:19:55.040Z,44.14
2018-04-07T19:22:21.007Z,44.37
2018-04-07T19:24:48.243Z,45.65
2018-04-07T19:27:14.238Z,45.67
2018-04-07T19:29:40.739Z,46.00
2018-04-07T19:32:06.640Z,45.86
2018-04-07T19:34:32.628Z,46.08
2018-04-07T19:36:58.518Z,46.29
2018-04-07T19:39:24.429Z,45.65
2018-04-07T19:41:50.405Z,45.76
2018-04-07T19:44:16.350Z,46.03
2018-04-07T19:46:42.298Z,46.70
2018-04-07T19:49:08.236Z,46.86
2018-04-07T19:51:34.114Z,46.23
2018-04-07T19:54:00.066Z,46.10
2018-04-07T19:56:25.984Z,47.57
2018-04-07T19:58:51.930Z,48.33
2018-04-07T20:01:17.849Z,48.33
2018-04-07T20:03:43.717Z,48.39
2018-04-07T20:06:09.662Z,49.09
2018-04-07T20:08:35.597Z,49.50
2018-04-07T20:11:01.540Z,49.13
2018-04-07T20:13:27.451Z,49.92
2018-04-07T20:15:53.408Z,50.99
2018-04-07T20:18:19.331Z,50.95
2018-04-07T20:20:46.102Z,51.95
2018-04-07T20:23:12.061Z,52.19
2018-04-07T20:25:37.960Z,52.21
2018-04-07T20:28:03.860Z,51.90
2018-04-07T20:30:30.354Z,52.21
2018-04-07T20:32:56.866Z,53.14
2018-04-07T20:35:22.762Z,52.80
2018-04-07T20:37:48.611Z,53.09
2018-04-07T20:40:15.044Z,53.29
2018-04-07T20:42:40.883Z,54.30
2018-04-07T20:45:06.740Z,54.15
2018-04-07T20:47:32.671Z,54.49
2018-04-07T20:49:58.531Z,54.92
2018-04-07T20:52:25.029Z,55.49
2018-04-07T20:54:51.882Z,55.40
2018-04-07T20:57:17.768Z,56.11
2018-04-07T20:59:43.635Z,56.24
2018-04-07T21:02:09.517Z,56.72
2018-04-07T21:04:35.441Z,56.59
2018-04-07T21:07:01.311Z,56.58
2018-04-07T21:09:27.309Z,56.41
2018-04-07T21:11:53.210Z,56.35
2018-04-07T21:14:19.135Z,56.44
2018-04-07T21:16:45.006Z,56.36
2018-04-07T21:19:10.966Z,56.18
2018-04-07T21:21:36.814Z,56.57
2018-04-07T21:24:02.762Z,56.85
2018-04-07T21:26:28.631Z,56.84
2018-04-07T21:28:54.470Z,57.18
2018-04-07T21:31:20.366Z,57.59
2018-04-07T21:33:46.267Z,58.06
2018-04-07T21:36:12.146Z,57.61
2018-04-07T21:38:38.001Z,58.81
2018-04-07T21:41:03.908Z,58.32
2018-04-07T21:43:29.780Z,58.94
2018-04-07T21:45:55.664Z,59.23
2018-04-07T21:48:21.562Z,57.73
2018-04-07T21:50:47.443Z,58.13
2018-04-07T21:53:13.336Z,58.67
2018-04-07T21:55:39.207Z,59.15
2018-04-07T21:58:05.099Z,59.61
2018-04-07T22:00:30.966Z,59.88
2018-04-07T22:02:56.835Z,60.14
2018-04-07T22:05:22.663Z,59.33
2018-04-07T22:07:48.529Z,58.96
2018-04-07T22:10:14.414Z,58.83
2018-04-07T22:12:40.318Z,58.79
2018-04-07T22:15:06.210Z,58.81
2018-04-07T22:17:32.093Z,59.13
2018-04-07T22:19:57.973Z,58.76
2018-04-07T22:22:23.867Z,58.62
2018-04-07T22:24:49.749Z,58.63
2018-04-07T22:27:15.616Z,58.63
2018-04-07T22:29:41.475Z,59.25
2018-04-07T22:32:07.323Z,59.13
2018-04-07T22:34:33.200Z,58.88
2018-04-07T22:36:59.031Z,59.39
2018-04-07T22:39:24.875Z,58.94
2018-04-07T22:41:50.768Z,59.48
2018-04-07T22:44:16.617Z,59.34
2018-04-07T22:46:42.525Z,59.12
2018-04-07T22:49:08.402Z,59.33
2018-04-07T22:51:34.264Z,60.19
2018-04-07T22:54:00.125Z,60.12
2018-04-07T22:56:26.063Z,60.11
2018-04-07T22:58:51.915Z,60.20
2018-04-07T23:01:17.744Z,60.47
2018-04-07T23:03:43.604Z,61.01
2018-04-07T23:06:09.476Z,61.22
2018-04-07T23:08:35.341Z,61.89
2018-04-07T23:11:01.187Z,62.24
2018-04-07T23:13:27.053Z,63.01
2018-04-07T23:15:52.931Z,63.34
2018-04-07T23:18:18.829Z,63.81
2018-04-07T23:20:44.673Z,64.34
2018-04-07T23:23:10.522Z,64.38
2018-04-07T23:25:36.401Z,64.71
2018-04-07T23:28:02.234Z,65.00
2018-04-07T23:30:28.095Z,64.97
2018-04-07T23:32:53.963Z,65.19
2018-04-07T23:35:19.854Z,65.70
2018-04-07T23:37:45.705Z,65.18
2018-04-07T23:40:11.549Z,65.76
2018-04-07T23:42:37.419Z,65.99
2018-04-07T23:45:03.285Z,65.87
2018-04-07T23:47:29.160Z,66.23
2018-04-07T23:49:55.015Z,66.09
2018-04-07T23:52:20.866Z,66.39
2018-04-07T23:54:46.709Z,66.58
2018-04-07T23:57:12.596Z,66.30
2018-04-07T23:59:38.472Z,66.64
